sensor_id;sensor_type;location;lat;lon;timestamp;P1;durP1;ratioP1;P2;durP2;ratioP2
28926;SDS011;16038;47.692;9.400;2022-07-23T00:01:26;15.50;;;9.13;;
28926;SDS011;16038;47.692;9.400;2022-07-23T00:03:53;16.27;;;8.75;;
28926;SDS011;16038;47.692;9.400;2022-07-23T00:06:19;14.27;;;8.18;;
28926;SDS011;16038;47.692;9.400;2022-07-23T00:08:45;12.07;;;8.85;;
28926;SDS011;16038;47.692;9.400;2022-07-23T00:11:10;14.20;;;8.15;;
28926;SDS011;16038;47.692;9.400;2022-07-23T00:13:36;13.15;;;8.63;;
28926;SDS011;16038;47.692;9.400;2022-07-23T00:16:02;12.43;;;8.02;;
28926;SDS011;16038;47.692;9.400;2022-07-23T00:18:28;14.95;;;9.95;;
28926;SDS011;16038;47.692;9.400;2022-07-23T00:20:53;11.32;;;8.43;;
28926;SDS011;16038;47.692;9.400;2022-07-23T00:23:18;11.55;;;8.05;;
28926;SDS011;16038;47.692;9.400;2022-07-23T00:25:44;13.40;;;8.13;;
28926;SDS011;16038;47.692;9.400;2022-07-23T00:28:10;10.15;;;7.40;;
28926;SDS011;16038;47.692;9.400;2022-07-23T00:30:36;12.30;;;8.30;;
28926;SDS011;16038;47.692;9.400;2022-07-23T00:33:02;10.75;;;7.97;;
28926;SDS011;16038;47.692;9.400;2022-07-23T00:35:31;11.50;;;7.72;;
28926;SDS011;16038;47.692;9.400;2022-07-23T00:37:59;11.73;;;8.18;;
28926;SDS011;16038;47.692;9.400;2022-07-23T00:40:25;13.32;;;8.10;;
28926;SDS011;16038;47.692;9.400;2022-07-23T00:42:51;10.25;;;7.70;;
28926;SDS011;16038;47.692;9.400;2022-07-23T00:45:17;15.20;;;8.98;;
28926;SDS011;16038;47.692;9.400;2022-07-23T00:47:42;11.05;;;8.30;;
28926;SDS011;16038;47.692;9.400;2022-07-23T00:50:08;13.93;;;8.90;;
28926;SDS011;16038;47.692;9.400;2022-07-23T00:52:35;15.48;;;8.57;;
28926;SDS011;16038;47.692;9.400;2022-07-23T00:55:01;12.30;;;8.68;;
28926;SDS011;16038;47.692;9.400;2022-07-23T00:57:28;12.20;;;8.82;;
28926;SDS011;16038;47.692;9.400;2022-07-23T00:59:54;13.73;;;10.60;;
28926;SDS011;16038;47.692;9.400;2022-07-23T01:02:19;12.75;;;9.43;;
28926;SDS011;16038;47.692;9.400;2022-07-23T01:04:45;14.82;;;9.63;;
28926;SDS011;16038;47.692;9.400;2022-07-23T01:07:10;15.05;;;10.88;;
28926;SDS011;16038;47.692;9.400;2022-07-23T01:09:36;19.13;;;11.70;;
28926;SDS011;16038;47.692;9.400;2022-07-23T01:12:02;16.35;;;12.40;;
28926;SDS011;16038;47.692;9.400;2022-07-23T01:14:28;13.88;;;11.25;;
28926;SDS011;16038;47.692;9.400;2022-07-23T01:16:53;17.08;;;11.57;;
28926;SDS011;16038;47.692;9.400;2022-07-23T01:19:19;18.02;;;12.45;;
28926;SDS011;16038;47.692;9.400;2022-07-23T01:21:46;19.92;;;11.82;;
28926;SDS011;16038;47.692;9.400;2022-07-23T01:24:13;17.27;;;12.25;;
28926;SDS011;16038;47.692;9.400;2022-07-23T01:26:39;15.77;;;11.50;;
28926;SDS011;16038;47.692;9.400;2022-07-23T01:29:07;14.65;;;10.60;;
28926;SDS011;16038;47.692;9.400;2022-07-23T01:31:32;16.27;;;10.10;;
28926;SDS011;16038;47.692;9.400;2022-07-23T01:33:57;14.93;;;9.85;;
28926;SDS011;16038;47.692;9.400;2022-07-23T01:36:23;12.27;;;10.27;;
28926;SDS011;16038;47.692;9.400;2022-07-23T01:38:48;15.05;;;9.30;;
28926;SDS011;16038;47.692;9.400;2022-07-23T01:41:14;13.65;;;10.48;;
28926;SDS011;16038;47.692;9.400;2022-07-23T01:43:40;13.90;;;10.00;;
28926;SDS011;16038;47.692;9.400;2022-07-23T01:46:05;17.40;;;10.60;;
28926;SDS011;16038;47.692;9.400;2022-07-23T01:48:31;12.18;;;10.18;;
28926;SDS011;16038;47.692;9.400;2022-07-23T01:50:56;13.25;;;10.20;;
28926;SDS011;16038;47.692;9.400;2022-07-23T01:53:22;14.88;;;10.35;;
28926;SDS011;16038;47.692;9.400;2022-07-23T01:55:47;14.85;;;9.85;;
28926;SDS011;16038;47.692;9.400;2022-07-23T01:58:14;16.88;;;10.85;;
28926;SDS011;16038;47.692;9.400;2022-07-23T02:00:40;16.10;;;11.43;;
28926;SDS011;16038;47.692;9.400;2022-07-23T02:03:05;16.00;;;11.35;;
28926;SDS011;16038;47.692;9.400;2022-07-23T02:05:31;16.50;;;11.73;;
28926;SDS011;16038;47.692;9.400;2022-07-23T02:07:59;13.75;;;11.38;;
28926;SDS011;16038;47.692;9.400;2022-07-23T02:10:26;12.90;;;10.95;;
28926;SDS011;16038;47.692;9.400;2022-07-23T02:12:52;13.73;;;10.93;;
28926;SDS011;16038;47.692;9.400;2022-07-23T02:15:18;14.13;;;9.63;;
28926;SDS011;16038;47.692;9.400;2022-07-23T02:17:44;15.32;;;9.68;;
28926;SDS011;16038;47.692;9.400;2022-07-23T02:20:10;14.95;;;9.63;;
28926;SDS011;16038;47.692;9.400;2022-07-23T02:22:36;15.23;;;8.88;;
28926;SDS011;16038;47.692;9.400;2022-07-23T02:25:02;12.82;;;9.35;;
28926;SDS011;16038;47.692;9.400;2022-07-23T02:27:29;14.18;;;9.45;;
28926;SDS011;16038;47.692;9.400;2022-07-23T02:29:54;12.52;;;9.18;;
28926;SDS011;16038;47.692;9.400;2022-07-23T02:32:20;13.88;;;9.55;;
28926;SDS011;16038;47.692;9.400;2022-07-23T02:34:48;12.88;;;9.65;;
28926;SDS011;16038;47.692;9.400;2022-07-23T02:37:14;14.43;;;10.25;;
28926;SDS011;16038;47.692;9.400;2022-07-23T02:39:39;11.85;;;8.98;;
28926;SDS011;16038;47.692;9.400;2022-07-23T02:42:05;13.02;;;9.45;;
28926;SDS011;16038;47.692;9.400;2022-07-23T02:44:30;14.13;;;8.90;;
28926;SDS011;16038;47.692;9.400;2022-07-23T02:46:56;13.80;;;8.70;;
28926;SDS011;16038;47.692;9.400;2022-07-23T02:49:21;12.27;;;8.50;;
28926;SDS011;16038;47.692;9.400;2022-07-23T02:51:47;14.43;;;9.13;;
28926;SDS011;16038;47.692;9.400;2022-07-23T02:54:12;14.65;;;8.90;;
28926;SDS011;16038;47.692;9.400;2022-07-23T02:56:37;14.85;;;9.55;;
28926;SDS011;16038;47.692;9.400;2022-07-23T02:59:03;11.40;;;8.38;;
28926;SDS011;16038;47.692;9.400;2022-07-23T03:01:28;12.10;;;9.05;;
28926;SDS011;16038;47.692;9.400;2022-07-23T03:03:54;13.57;;;8.65;;
28926;SDS011;16038;47.692;9.400;2022-07-23T03:06:19;13.82;;;9.07;;
28926;SDS011;16038;47.692;9.400;2022-07-23T03:08:44;11.88;;;8.35;;
28926;SDS011;16038;47.692;9.400;2022-07-23T03:11:10;13.82;;;8.93;;
28926;SDS011;16038;47.692;9.400;2022-07-23T03:13:38;13.40;;;9.13;;
28926;SDS011;16038;47.692;9.400;2022-07-23T03:16:04;10.68;;;8.45;;
28926;SDS011;16038;47.692;9.400;2022-07-23T03:18:30;12.15;;;8.65;;
28926;SDS011;16038;47.692;9.400;2022-07-23T03:20:55;12.95;;;9.05;;
28926;SDS011;16038;47.692;9.400;2022-07-23T03:23:20;10.73;;;8.20;;
28926;SDS011;16038;47.692;9.400;2022-07-23T03:25:46;11.25;;;8.68;;
28926;SDS011;16038;47.692;9.400;2022-07-23T03:28:13;12.80;;;8.93;;
28926;SDS011;16038;47.692;9.400;2022-07-23T03:30:41;12.40;;;8.02;;
28926;SDS011;16038;47.692;9.400;2022-07-23T03:33:07;11.50;;;8.43;;
28926;SDS011;16038;47.692;9.400;2022-07-23T03:35:32;13.50;;;8.13;;
28926;SDS011;16038;47.692;9.400;2022-07-23T03:37:58;12.77;;;8.65;;
28926;SDS011;16038;47.692;9.400;2022-07-23T03:40:23;13.68;;;8.85;;
28926;SDS011;16038;47.692;9.400;2022-07-23T03:42:49;14.05;;;9.02;;
28926;SDS011;16038;47.692;9.400;2022-07-23T03:45:14;15.93;;;10.25;;
28926;SDS011;16038;47.692;9.400;2022-07-23T03:47:39;12.68;;;9.68;;
28926;SDS011;16038;47.692;9.400;2022-07-23T03:50:05;13.48;;;10.15;;
28926;SDS011;16038;47.692;9.400;2022-07-23T03:52:31;11.18;;;9.05;;
28926;SDS011;16038;47.692;9.400;2022-07-23T03:54:56;13.40;;;8.88;;
28926;SDS011;16038;47.692;9.400;2022-07-23T03:57:22;13.65;;;8.98;;
28926;SDS011;16038;47.692;9.400;2022-07-23T03:59:47;13.60;;;9.10;;
28926;SDS011;16038;47.692;9.400;2022-07-23T04:02:12;13.45;;;8.60;;
28926;SDS011;16038;47.692;9.400;2022-07-23T04:04:38;13.05;;;8.35;;
28926;SDS011;16038;47.692;9.400;2022-07-23T04:07:03;13.98;;;8.48;;
28926;SDS011;16038;47.692;9.400;2022-07-23T04:09:28;10.85;;;8.18;;
28926;SDS011;16038;47.692;9.400;2022-07-23T04:11:54;13.05;;;8.55;;
28926;SDS011;16038;47.692;9.400;2022-07-23T04:14:20;11.98;;;8.43;;
28926;SDS011;16038;47.692;9.400;2022-07-23T04:16:45;11.75;;;8.38;;
28926;SDS011;16038;47.692;9.400;2022-07-23T04:19:11;11.90;;;7.72;;
28926;SDS011;16038;47.692;9.400;2022-07-23T04:21:36;11.85;;;8.32;;
28926;SDS011;16038;47.692;9.400;2022-07-23T04:24:02;13.60;;;8.38;;
28926;SDS011;16038;47.692;9.400;2022-07-23T04:26:27;13.18;;;7.95;;
28926;SDS011;16038;47.692;9.400;2022-07-23T04:28:52;11.43;;;8.32;;
28926;SDS011;16038;47.692;9.400;2022-07-23T04:31:18;13.35;;;8.13;;
28926;SDS011;16038;47.692;9.400;2022-07-23T04:33:43;10.20;;;7.55;;
28926;SDS011;16038;47.692;9.400;2022-07-23T04:36:08;13.05;;;8.90;;
28926;SDS011;16038;47.692;9.400;2022-07-23T04:38:34;12.02;;;8.05;;
28926;SDS011;16038;47.692;9.400;2022-07-23T04:40:59;12.10;;;8.25;;
28926;SDS011;16038;47.692;9.400;2022-07-23T04:43:25;13.23;;;8.48;;
28926;SDS011;16038;47.692;9.400;2022-07-23T04:45:50;11.98;;;8.20;;
28926;SDS011;16038;47.692;9.400;2022-07-23T04:48:16;11.88;;;8.70;;
28926;SDS011;16038;47.692;9.400;2022-07-23T04:50:41;13.02;;;8.43;;
28926;SDS011;16038;47.692;9.400;2022-07-23T04:53:07;12.52;;;8.38;;
28926;SDS011;16038;47.692;9.400;2022-07-23T04:55:33;13.68;;;8.70;;
28926;SDS011;16038;47.692;9.400;2022-07-23T04:57:58;14.35;;;8.40;;
28926;SDS011;16038;47.692;9.400;2022-07-23T05:00:23;11.40;;;7.88;;
28926;SDS011;16038;47.692;9.400;2022-07-23T05:02:49;12.45;;;8.55;;
28926;SDS011;16038;47.692;9.400;2022-07-23T05:05:14;11.75;;;8.50;;
28926;SDS011;16038;47.692;9.400;2022-07-23T05:07:40;13.63;;;8.32;;
28926;SDS011;16038;47.692;9.400;2022-07-23T05:10:05;13.32;;;9.43;;
28926;SDS011;16038;47.692;9.400;2022-07-23T05:12:31;17.13;;;9.93;;
28926;SDS011;16038;47.692;9.400;2022-07-23T05:14:57;16.50;;;10.27;;
28926;SDS011;16038;47.692;9.400;2022-07-23T05:17:23;13.52;;;9.27;;
28926;SDS011;16038;47.692;9.400;2022-07-23T05:19:49;14.43;;;10.30;;
28926;SDS011;16038;47.692;9.400;2022-07-23T05:22:14;16.42;;;10.25;;
28926;SDS011;16038;47.692;9.400;2022-07-23T05:24:39;11.43;;;9.63;;
28926;SDS011;16038;47.692;9.400;2022-07-23T05:27:05;14.35;;;9.73;;
28926;SDS011;16038;47.692;9.400;2022-07-23T05:29:30;14.25;;;9.85;;
28926;SDS011;16038;47.692;9.400;2022-07-23T05:31:56;12.27;;;9.65;;
28926;SDS011;16038;47.692;9.400;2022-07-23T05:34:21;12.15;;;9.13;;
28926;SDS011;16038;47.692;9.400;2022-07-23T05:36:46;12.52;;;9.20;;
28926;SDS011;16038;47.692;9.400;2022-07-23T05:39:13;14.88;;;9.02;;
28926;SDS011;16038;47.692;9.400;2022-07-23T05:41:39;16.25;;;10.13;;
28926;SDS011;16038;47.692;9.400;2022-07-23T05:44:04;13.38;;;8.60;;
28926;SDS011;16038;47.692;9.400;2022-07-23T05:46:30;10.60;;;9.15;;
28926;SDS011;16038;47.692;9.400;2022-07-23T05:48:55;12.75;;;9.57;;
28926;SDS011;16038;47.692;9.400;2022-07-23T05:51:21;13.90;;;9.73;;
28926;SDS011;16038;47.692;9.400;2022-07-23T05:53:47;18.23;;;10.43;;
28926;SDS011;16038;47.692;9.400;2022-07-23T05:56:13;15.00;;;11.20;;
28926;SDS011;16038;47.692;9.400;2022-07-23T05:58:39;14.73;;;11.70;;
28926;SDS011;16038;47.692;9.400;2022-07-23T06:01:04;13.90;;;10.05;;
28926;SDS011;16038;47.692;9.400;2022-07-23T06:03:29;13.82;;;9.45;;
28926;SDS011;16038;47.692;9.400;2022-07-23T06:05:55;12.85;;;8.52;;
28926;SDS011;16038;47.692;9.400;2022-07-23T06:08:20;13.23;;;9.23;;
28926;SDS011;16038;47.692;9.400;2022-07-23T06:10:45;11.18;;;9.02;;
28926;SDS011;16038;47.692;9.400;2022-07-23T06:13:11;12.65;;;9.70;;
28926;SDS011;16038;47.692;9.400;2022-07-23T06:15:37;14.48;;;9.20;;
28926;SDS011;16038;47.692;9.400;2022-07-23T06:18:02;14.35;;;9.63;;
28926;SDS011;16038;47.692;9.400;2022-07-23T06:20:28;11.25;;;8.85;;
28926;SDS011;16038;47.692;9.400;2022-07-23T06:22:53;13.38;;;9.63;;
28926;SDS011;16038;47.692;9.400;2022-07-23T06:25:18;13.63;;;9.93;;
28926;SDS011;16038;47.692;9.400;2022-07-23T06:27:45;14.85;;;9.25;;
28926;SDS011;16038;47.692;9.400;2022-07-23T06:30:11;12.27;;;8.80;;
28926;SDS011;16038;47.692;9.400;2022-07-23T06:32:37;14.07;;;9.32;;
28926;SDS011;16038;47.692;9.400;2022-07-23T06:35:03;15.13;;;10.27;;
28926;SDS011;16038;47.692;9.400;2022-07-23T06:37:28;16.30;;;10.85;;
28926;SDS011;16038;47.692;9.400;2022-07-23T06:39:54;13.13;;;9.30;;
28926;SDS011;16038;47.692;9.400;2022-07-23T06:42:19;14.57;;;10.32;;
28926;SDS011;16038;47.692;9.400;2022-07-23T06:44:44;12.63;;;10.05;;
28926;SDS011;16038;47.692;9.400;2022-07-23T06:47:10;13.55;;;10.07;;
28926;SDS011;16038;47.692;9.400;2022-07-23T06:49:35;13.55;;;10.70;;
28926;SDS011;16038;47.692;9.400;2022-07-23T06:52:01;17.15;;;11.23;;
28926;SDS011;16038;47.692;9.400;2022-07-23T06:54:26;15.88;;;10.82;;
28926;SDS011;16038;47.692;9.400;2022-07-23T06:56:51;13.65;;;10.32;;
28926;SDS011;16038;47.692;9.400;2022-07-23T06:59:17;14.23;;;9.45;;
28926;SDS011;16038;47.692;9.400;2022-07-23T07:01:42;14.32;;;9.57;;
28926;SDS011;16038;47.692;9.400;2022-07-23T07:04:07;16.60;;;11.25;;
28926;SDS011;16038;47.692;9.400;2022-07-23T07:06:33;19.30;;;11.02;;
28926;SDS011;16038;47.692;9.400;2022-07-23T07:08:59;13.25;;;10.13;;
28926;SDS011;16038;47.692;9.400;2022-07-23T07:11:24;15.70;;;11.45;;
28926;SDS011;16038;47.692;9.400;2022-07-23T07:13:50;13.88;;;10.57;;
28926;SDS011;16038;47.692;9.400;2022-07-23T07:16:16;14.93;;;10.80;;
28926;SDS011;16038;47.692;9.400;2022-07-23T07:18:42;14.63;;;9.88;;
28926;SDS011;16038;47.692;9.400;2022-07-23T07:21:07;13.98;;;10.18;;
28926;SDS011;16038;47.692;9.400;2022-07-23T07:23:32;14.70;;;9.40;;
28926;SDS011;16038;47.692;9.400;2022-07-23T07:25:58;12.45;;;9.20;;
28926;SDS011;16038;47.692;9.400;2022-07-23T07:28:23;16.63;;;10.13;;
28926;SDS011;16038;47.692;9.400;2022-07-23T07:30:49;11.77;;;9.40;;
28926;SDS011;16038;47.692;9.400;2022-07-23T07:33:14;12.98;;;9.40;;
28926;SDS011;16038;47.692;9.400;2022-07-23T07:35:40;12.90;;;8.98;;
28926;SDS011;16038;47.692;9.400;2022-07-23T07:38:05;14.57;;;10.18;;
28926;SDS011;16038;47.692;9.400;2022-07-23T07:40:31;14.02;;;9.60;;
28926;SDS011;16038;47.692;9.400;2022-07-23T07:42:56;14.85;;;10.10;;
28926;SDS011;16038;47.692;9.400;2022-07-23T07:45:22;16.73;;;11.13;;
28926;SDS011;16038;47.692;9.400;2022-07-23T07:47:49;13.20;;;10.32;;
28926;SDS011;16038;47.692;9.400;2022-07-23T07:50:16;13.68;;;10.77;;
28926;SDS011;16038;47.692;9.400;2022-07-23T07:52:42;14.73;;;10.50;;
28926;SDS011;16038;47.692;9.400;2022-07-23T07:55:08;13.35;;;8.90;;
28926;SDS011;16038;47.692;9.400;2022-07-23T07:57:34;11.48;;;8.32;;
28926;SDS011;16038;47.692;9.400;2022-07-23T08:05:11;12.85;;;8.02;;
28926;SDS011;16038;47.692;9.400;2022-07-23T08:07:38;12.63;;;9.00;;
28926;SDS011;16038;47.692;9.400;2022-07-23T08:10:05;12.50;;;8.52;;
28926;SDS011;16038;47.692;9.400;2022-07-23T08:12:48;13.27;;;9.35;;
28926;SDS011;16038;47.692;9.400;2022-07-23T08:15:14;11.88;;;8.95;;
28926;SDS011;16038;47.692;9.400;2022-07-23T08:17:41;9.93;;;7.80;;
28926;SDS011;16038;47.692;9.400;2022-07-23T08:20:08;13.40;;;8.55;;
28926;SDS011;16038;47.692;9.400;2022-07-23T08:23:08;11.75;;;9.10;;
28926;SDS011;16038;47.692;9.400;2022-07-23T08:25:32;11.23;;;8.48;;
28926;SDS011;16038;47.692;9.400;2022-07-23T08:27:59;12.32;;;9.32;;
28926;SDS011;16038;47.692;9.400;2022-07-23T08:30:26;12.48;;;8.57;;
28926;SDS011;16038;47.692;9.400;2022-07-23T08:35:26;9.95;;;8.20;;
28926;SDS011;16038;47.692;9.400;2022-07-23T08:37:56;15.15;;;9.18;;
28926;SDS011;16038;47.692;9.400;2022-07-23T08:40:25;14.32;;;8.52;;
28926;SDS011;16038;47.692;9.400;2022-07-23T08:42:52;12.93;;;8.07;;
28926;SDS011;16038;47.692;9.400;2022-07-23T08:45:18;11.13;;;8.48;;
28926;SDS011;16038;47.692;9.400;2022-07-23T08:47:52;13.00;;;7.93;;
28926;SDS011;16038;47.692;9.400;2022-07-23T08:50:24;15.57;;;9.45;;
28926;SDS011;16038;47.692;9.400;2022-07-23T08:52:50;15.02;;;8.55;;
28926;SDS011;16038;47.692;9.400;2022-07-23T08:55:17;11.07;;;7.93;;
28926;SDS011;16038;47.692;9.400;2022-07-23T08:57:45;14.43;;;8.18;;
28926;SDS011;16038;47.692;9.400;2022-07-23T09:00:13;13.18;;;8.90;;
28926;SDS011;16038;47.692;9.400;2022-07-23T09:02:40;14.07;;;8.25;;
28926;SDS011;16038;47.692;9.400;2022-07-23T09:05:07;14.93;;;8.60;;
28926;SDS011;16038;47.692;9.400;2022-07-23T09:07:34;15.98;;;8.88;;
28926;SDS011;16038;47.692;9.400;2022-07-23T09:10:04;11.70;;;8.63;;
28926;SDS011;16038;47.692;9.400;2022-07-23T09:12:31;10.68;;;8.20;;
28926;SDS011;16038;47.692;9.400;2022-07-23T09:14:57;13.45;;;8.95;;
28926;SDS011;16038;47.692;9.400;2022-07-23T09:17:36;14.95;;;9.60;;
28926;SDS011;16038;47.692;9.400;2022-07-23T09:20:14;12.85;;;8.82;;
28926;SDS011;16038;47.692;9.400;2022-07-23T09:22:47;12.13;;;8.77;;
28926;SDS011;16038;47.692;9.400;2022-07-23T09:25:17;12.52;;;8.65;;
28926;SDS011;16038;47.692;9.400;2022-07-23T09:30:15;11.18;;;9.05;;
28926;SDS011;16038;47.692;9.400;2022-07-23T09:32:41;14.70;;;8.82;;
28926;SDS011;16038;47.692;9.400;2022-07-23T09:35:08;17.25;;;9.40;;
28926;SDS011;16038;47.692;9.400;2022-07-23T09:37:33;13.07;;;8.52;;
28926;SDS011;16038;47.692;9.400;2022-07-23T09:40:03;15.15;;;9.10;;
28926;SDS011;16038;47.692;9.400;2022-07-23T09:42:30;14.90;;;9.98;;
28926;SDS011;16038;47.692;9.400;2022-07-23T09:44:57;14.35;;;9.07;;
28926;SDS011;16038;47.692;9.400;2022-07-23T09:47:24;17.65;;;12.10;;
28926;SDS011;16038;47.692;9.400;2022-07-23T09:52:30;11.30;;;7.95;;
28926;SDS011;16038;47.692;9.400;2022-07-23T09:55:02;14.43;;;9.52;;
28926;SDS011;16038;47.692;9.400;2022-07-23T09:57:29;12.82;;;8.52;;
28926;SDS011;16038;47.692;9.400;2022-07-23T09:59:57;13.48;;;9.55;;
28926;SDS011;16038;47.692;9.400;2022-07-23T10:02:26;15.20;;;10.95;;
28926;SDS011;16038;47.692;9.400;2022-07-23T10:04:53;12.18;;;9.43;;
28926;SDS011;16038;47.692;9.400;2022-07-23T10:07:21;13.45;;;8.93;;
28926;SDS011;16038;47.692;9.400;2022-07-23T10:09:47;14.35;;;9.48;;
28926;SDS011;16038;47.692;9.400;2022-07-23T10:12:15;12.40;;;9.27;;
28926;SDS011;16038;47.692;9.400;2022-07-23T10:14:41;13.70;;;9.60;;
28926;SDS011;16038;47.692;9.400;2022-07-23T10:17:07;15.45;;;10.55;;
28926;SDS011;16038;47.692;9.400;2022-07-23T10:19:33;14.82;;;11.05;;
28926;SDS011;16038;47.692;9.400;2022-07-23T10:22:03;14.13;;;10.52;;
28926;SDS011;16038;47.692;9.400;2022-07-23T10:33:32;12.63;;;9.95;;
28926;SDS011;16038;47.692;9.400;2022-07-23T10:36:25;13.30;;;10.48;;
28926;SDS011;16038;47.692;9.400;2022-07-23T10:39:16;12.73;;;8.77;;
28926;SDS011;16038;47.692;9.400;2022-07-23T10:41:47;11.52;;;8.98;;
28926;SDS011;16038;47.692;9.400;2022-07-23T10:44:21;11.38;;;7.72;;
28926;SDS011;16038;47.692;9.400;2022-07-23T10:49:36;10.98;;;7.72;;
28926;SDS011;16038;47.692;9.400;2022-07-23T10:54:49;10.90;;;8.02;;
28926;SDS011;16038;47.692;9.400;2022-07-23T10:57:21;11.60;;;8.38;;
28926;SDS011;16038;47.692;9.400;2022-07-23T11:02:27;20.10;;;8.68;;
28926;SDS011;16038;47.692;9.400;2022-07-23T11:04:58;13.30;;;7.43;;
28926;SDS011;16038;47.692;9.400;2022-07-23T11:07:25;8.98;;;7.13;;
28926;SDS011;16038;47.692;9.400;2022-07-23T11:09:51;10.50;;;7.97;;
28926;SDS011;16038;47.692;9.400;2022-07-23T11:17:23;12.27;;;8.75;;
28926;SDS011;16038;47.692;9.400;2022-07-23T11:20:12;13.45;;;7.72;;
28926;SDS011;16038;47.692;9.400;2022-07-23T11:22:38;10.65;;;8.30;;
28926;SDS011;16038;47.692;9.400;2022-07-23T11:25:04;11.20;;;7.80;;
28926;SDS011;16038;47.692;9.400;2022-07-23T11:27:42;9.63;;;7.63;;
28926;SDS011;16038;47.692;9.400;2022-07-23T11:30:36;11.18;;;7.18;;
28926;SDS011;16038;47.692;9.400;2022-07-23T11:33:15;11.27;;;8.82;;
28926;SDS011;16038;47.692;9.400;2022-07-23T11:35:43;16.00;;;8.18;;
28926;SDS011;16038;47.692;9.400;2022-07-23T11:40:35;12.93;;;8.60;;
28926;SDS011;16038;47.692;9.400;2022-07-23T11:43:02;16.90;;;9.40;;
28926;SDS011;16038;47.692;9.400;2022-07-23T11:45:34;16.10;;;8.50;;
28926;SDS011;16038;47.692;9.400;2022-07-23T11:48:03;9.85;;;8.00;;
28926;SDS011;16038;47.692;9.400;2022-07-23T11:50:30;12.25;;;8.25;;
28926;SDS011;16038;47.692;9.400;2022-07-23T11:52:56;13.13;;;8.40;;
28926;SDS011;16038;47.692;9.400;2022-07-23T11:55:22;12.35;;;8.57;;
28926;SDS011;16038;47.692;9.400;2022-07-23T11:57:47;12.57;;;9.27;;
28926;SDS011;16038;47.692;9.400;2022-07-23T12:02:41;13.63;;;8.50;;
28926;SDS011;16038;47.692;9.400;2022-07-23T12:05:16;10.25;;;7.72;;
28926;SDS011;16038;47.692;9.400;2022-07-23T12:07:44;9.38;;;7.82;;
28926;SDS011;16038;47.692;9.400;2022-07-23T12:12:41;11.60;;;9.45;;
28926;SDS011;16038;47.692;9.400;2022-07-23T12:15:09;10.95;;;8.10;;
28926;SDS011;16038;47.692;9.400;2022-07-23T12:17:40;12.27;;;8.60;;
28926;SDS011;16038;47.692;9.400;2022-07-23T12:20:08;12.98;;;8.68;;
28926;SDS011;16038;47.692;9.400;2022-07-23T12:22:41;10.40;;;8.48;;
28926;SDS011;16038;47.692;9.400;2022-07-23T12:25:12;12.27;;;8.30;;
28926;SDS011;16038;47.692;9.400;2022-07-23T12:27:42;11.98;;;8.82;;
28926;SDS011;16038;47.692;9.400;2022-07-23T12:30:18;12.18;;;8.27;;
28926;SDS011;16038;47.692;9.400;2022-07-23T12:32:49;14.05;;;8.32;;
28926;SDS011;16038;47.692;9.400;2022-07-23T12:35:16;11.07;;;8.48;;
28926;SDS011;16038;47.692;9.400;2022-07-23T12:37:43;12.40;;;8.90;;
28926;SDS011;16038;47.692;9.400;2022-07-23T12:40:26;12.15;;;8.48;;
28926;SDS011;16038;47.692;9.400;2022-07-23T12:42:58;10.13;;;8.02;;
28926;SDS011;16038;47.692;9.400;2022-07-23T12:45:26;10.65;;;8.05;;
28926;SDS011;16038;47.692;9.400;2022-07-23T12:47:54;10.60;;;8.02;;
28926;SDS011;16038;47.692;9.400;2022-07-23T12:50:34;12.18;;;9.15;;
28926;SDS011;16038;47.692;9.400;2022-07-23T12:53:05;12.43;;;8.45;;
28926;SDS011;16038;47.692;9.400;2022-07-23T12:55:39;10.88;;;8.07;;
28926;SDS011;16038;47.692;9.400;2022-07-23T12:58:06;9.48;;;7.28;;
28926;SDS011;16038;47.692;9.400;2022-07-23T13:01:00;11.27;;;8.38;;
28926;SDS011;16038;47.692;9.400;2022-07-23T13:03:33;13.10;;;7.47;;
28926;SDS011;16038;47.692;9.400;2022-07-23T13:06:01;12.80;;;7.45;;
28926;SDS011;16038;47.692;9.400;2022-07-23T13:08:29;12.80;;;7.75;;
28926;SDS011;16038;47.692;9.400;2022-07-23T13:10:57;11.27;;;7.47;;
28926;SDS011;16038;47.692;9.400;2022-07-23T13:13:27;10.68;;;7.50;;
28926;SDS011;16038;47.692;9.400;2022-07-23T13:15:54;11.23;;;8.43;;
28926;SDS011;16038;47.692;9.400;2022-07-23T13:18:20;10.32;;;7.55;;
28926;SDS011;16038;47.692;9.400;2022-07-23T13:20:47;9.77;;;8.25;;
28926;SDS011;16038;47.692;9.400;2022-07-23T13:23:13;15.27;;;8.85;;
28926;SDS011;16038;47.692;9.400;2022-07-23T13:25:39;10.45;;;8.60;;
28926;SDS011;16038;47.692;9.400;2022-07-23T13:28:06;13.20;;;8.70;;
28926;SDS011;16038;47.692;9.400;2022-07-23T13:30:32;11.40;;;8.38;;
28926;SDS011;16038;47.692;9.400;2022-07-23T13:32:57;10.43;;;7.47;;
28926;SDS011;16038;47.692;9.400;2022-07-23T13:35:23;10.43;;;7.60;;
28926;SDS011;16038;47.692;9.400;2022-07-23T13:37:48;10.75;;;7.13;;
28926;SDS011;16038;47.692;9.400;2022-07-23T13:40:14;8.55;;;7.10;;
28926;SDS011;16038;47.692;9.400;2022-07-23T13:42:39;12.98;;;7.97;;
28926;SDS011;16038;47.692;9.400;2022-07-23T13:45:06;9.20;;;6.88;;
28926;SDS011;16038;47.692;9.400;2022-07-23T13:47:32;10.73;;;8.05;;
28926;SDS011;16038;47.692;9.400;2022-07-23T13:49:58;9.77;;;7.47;;
28926;SDS011;16038;47.692;9.400;2022-07-23T13:52:23;12.85;;;8.00;;
28926;SDS011;16038;47.692;9.400;2022-07-23T13:54:49;14.70;;;8.13;;
28926;SDS011;16038;47.692;9.400;2022-07-23T13:57:14;10.57;;;7.80;;
28926;SDS011;16038;47.692;9.400;2022-07-23T13:59:40;9.25;;;8.00;;
28926;SDS011;16038;47.692;9.400;2022-07-23T14:02:05;11.45;;;8.73;;
28926;SDS011;16038;47.692;9.400;2022-07-23T14:04:30;19.60;;;13.93;;
28926;SDS011;16038;47.692;9.400;2022-07-23T14:06:56;12.90;;;8.60;;
28926;SDS011;16038;47.692;9.400;2022-07-23T14:09:22;8.65;;;7.28;;
28926;SDS011;16038;47.692;9.400;2022-07-23T14:11:47;8.88;;;6.88;;
28926;SDS011;16038;47.692;9.400;2022-07-23T14:14:13;10.27;;;8.10;;
28926;SDS011;16038;47.692;9.400;2022-07-23T14:16:39;10.38;;;7.82;;
28926;SDS011;16038;47.692;9.400;2022-07-23T14:19:04;10.73;;;8.30;;
28926;SDS011;16038;47.692;9.400;2022-07-23T14:21:30;10.88;;;7.95;;
28926;SDS011;16038;47.692;9.400;2022-07-23T14:23:55;13.52;;;9.00;;
28926;SDS011;16038;47.692;9.400;2022-07-23T14:26:20;10.75;;;8.45;;
28926;SDS011;16038;47.692;9.400;2022-07-23T14:28:46;10.32;;;8.50;;
28926;SDS011;16038;47.692;9.400;2022-07-23T14:31:11;12.65;;;8.93;;
28926;SDS011;16038;47.692;9.400;2022-07-23T14:33:37;13.25;;;8.73;;
28926;SDS011;16038;47.692;9.400;2022-07-23T14:36:02;11.57;;;9.00;;
28926;SDS011;16038;47.692;9.400;2022-07-23T14:38:28;12.20;;;8.75;;
28926;SDS011;16038;47.692;9.400;2022-07-23T14:40:55;11.10;;;8.60;;
28926;SDS011;16038;47.692;9.400;2022-07-23T14:43:21;11.30;;;8.63;;
28926;SDS011;16038;47.692;9.400;2022-07-23T14:45:47;10.77;;;9.15;;
28926;SDS011;16038;47.692;9.400;2022-07-23T14:48:12;11.27;;;8.93;;
28926;SDS011;16038;47.692;9.400;2022-07-23T14:50:38;13.88;;;8.77;;
28926;SDS011;16038;47.692;9.400;2022-07-23T14:53:03;11.30;;;8.40;;
28926;SDS011;16038;47.692;9.400;2022-07-23T14:55:30;13.18;;;8.57;;
28926;SDS011;16038;47.692;9.400;2022-07-23T14:57:56;10.63;;;8.43;;
28926;SDS011;16038;47.692;9.400;2022-07-23T15:00:22;16.80;;;8.90;;
28926;SDS011;16038;47.692;9.400;2022-07-23T15:02:47;12.52;;;9.18;;
28926;SDS011;16038;47.692;9.400;2022-07-23T15:05:12;14.48;;;9.07;;
28926;SDS011;16038;47.692;9.400;2022-07-23T15:07:38;15.60;;;10.05;;
28926;SDS011;16038;47.692;9.400;2022-07-23T15:10:03;11.85;;;8.75;;
28926;SDS011;16038;47.692;9.400;2022-07-23T15:12:29;14.82;;;8.75;;
28926;SDS011;16038;47.692;9.400;2022-07-23T15:14:55;11.30;;;8.25;;